Kezdőlap
METAR-TAF:

METAR-TAF

Repülőterek :

Kiel, Németország

földrajzi szélesség: 54-23N, földrajzi hosszúság: 010-10E, magasság: 31 m

Jelenlegi meteorológiai megfigyelések

A jelentés 14 perccel ezelõtt készült, 20:50 UTC
Kelet-délkeleti szél 4 kt
Hőmérséklet 18°C
Páratartalom 68%
Légköri nyomás 1018 hPa
Látótávolság 10 km, vagy több

METAR: EDHK 192050Z AUTO 11004KT 9999 // NCD 18/12 Q1018

Idő: 23:04 (21:04 UTC)

Előrejelzés

A jelentés 7 órával és 4 perccel ezelõtt készült, 14:00 UTC
Az előrejelzés 19-én 15 óra UTC és 19-én 19 óra UTC között érvényes
Északkeleti szél 8 kt
Látótávolság 10 km, vagy több
felhőtlen 1500 m magasságban, és nincs gomolyfelhõ
19-én 18 óra UTC és 19-én 19 óra UTC között fokozatosan kialakuló
Keleti szél 3 kt

TAF: EDHK 191400Z 1915/1919 04008KT CAVOK BECMG 1918/1919 09003KT

Meteorológiai megfigyelések és előrejelzések több, mint 4000 repülőtéren (METAR és TAF jelentéseket).

A térképen piros és sárga pontok jelzik az elérhető meteorológiai állomásokat.

Mozgassa az egeret a pont fölött, hogy megjelenjen az állomás neve.

Azután kattintson az időjárási megfigyelések és előrejelzések megtekintéséhez.

A térkép megváltoztatása: kattintson a fekete keresztel jelölt zöld gombra ráközelítéshez, a vonallal jelölt zöld gombra távolításhoz, vagy a zöld nyilakra a szomszédos térképek eléréséhez.


METAR-TAF: